createdAt,value
2017-10-02T00:01:47.339Z,14.90
2017-10-02T00:04:17.811Z,14.90
2017-10-02T00:06:49.647Z,14.90
2017-10-02T00:09:20.213Z,14.90
2017-10-02T00:11:51.132Z,14.90
2017-10-02T00:14:21.508Z,14.90
2017-10-02T00:16:53.075Z,14.90
2017-10-02T00:19:24.347Z,14.90
2017-10-02T00:21:54.964Z,14.90
2017-10-02T00:24:25.784Z,14.90
2017-10-02T00:26:57.307Z,15.00
2017-10-02T00:29:27.588Z,14.90
2017-10-02T00:31:58.198Z,15.00
2017-10-02T00:34:29.073Z,15.00
2017-10-02T00:37:00.973Z,15.00
2017-10-02T00:39:32.546Z,15.00
2017-10-02T00:42:03.306Z,14.90
2017-10-02T00:44:33.795Z,14.90
2017-10-02T00:47:05.191Z,15.00
2017-10-02T00:49:35.316Z,15.00
2017-10-02T00:52:05.945Z,15.00
2017-10-02T00:54:36.512Z,15.00
2017-10-02T00:57:08.272Z,15.00
2017-10-02T00:59:39.645Z,15.00
2017-10-02T01:02:10.715Z,15.00
2017-10-02T01:04:40.960Z,15.10
2017-10-02T01:07:12.285Z,15.10
2017-10-02T01:09:42.891Z,15.10
2017-10-02T01:12:13.746Z,15.20
2017-10-02T01:14:44.765Z,15.20
2017-10-02T01:17:16.522Z,15.20
2017-10-02T01:19:48.091Z,15.20
2017-10-02T01:22:18.943Z,15.20
2017-10-02T01:24:50.212Z,15.30
2017-10-02T01:27:20.866Z,15.20
2017-10-02T01:29:52.505Z,15.20
2017-10-02T01:32:23.301Z,15.20
2017-10-02T01:34:54.841Z,15.30
2017-10-02T01:37:25.660Z,15.30
2017-10-02T01:39:56.173Z,15.30
2017-10-02T01:42:27.397Z,15.00
2017-10-02T01:44:58.204Z,15.00
2017-10-02T01:47:28.938Z,14.80
2017-10-02T01:49:59.480Z,14.70
2017-10-02T01:52:30.257Z,14.70
2017-10-02T01:55:01.854Z,14.70
2017-10-02T01:57:32.883Z,14.70
2017-10-02T02:00:03.889Z,14.70
2017-10-02T02:02:35.294Z,14.80
2017-10-02T02:05:05.966Z,14.70
2017-10-02T02:07:38.059Z,14.80
2017-10-02T02:10:08.877Z,14.80
2017-10-02T02:12:40.599Z,14.90
2017-10-02T02:15:11.047Z,14.90
2017-10-02T02:17:42.503Z,14.90
2017-10-02T02:20:13.830Z,14.90
2017-10-02T02:22:44.505Z,14.90
2017-10-02T02:25:16.071Z,14.90
2017-10-02T02:27:47.087Z,14.90
2017-10-02T02:30:18.357Z,14.90
2017-10-02T02:32:49.664Z,15.00
2017-10-02T02:35:22.044Z,15.10
2017-10-02T02:37:53.580Z,15.00
2017-10-02T02:40:25.643Z,15.10
2017-10-02T02:42:57.771Z,15.10
2017-10-02T02:45:28.945Z,15.10
2017-10-02T02:48:01.685Z,15.20
2017-10-02T02:50:32.723Z,15.20
2017-10-02T02:53:03.622Z,15.30
2017-10-02T02:55:34.398Z,15.30
2017-10-02T02:58:05.790Z,15.20
2017-10-02T03:00:37.120Z,15.20
2017-10-02T03:03:08.523Z,15.20
2017-10-02T03:05:38.970Z,15.10
2017-10-02T03:08:10.334Z,15.00
2017-10-02T03:10:41.238Z,14.90
2017-10-02T03:13:13.516Z,14.70
2017-10-02T03:15:44.093Z,14.70
2017-10-02T03:18:15.297Z,14.70
2017-10-02T03:20:45.677Z,14.70
2017-10-02T03:23:17.201Z,14.70
2017-10-02T03:25:47.479Z,14.70
2017-10-02T03:28:19.154Z,14.70
2017-10-02T03:30:50.134Z,14.60
2017-10-02T03:33:21.179Z,14.60
2017-10-02T03:35:52.124Z,14.70
2017-10-02T03:38:24.104Z,14.70
2017-10-02T03:40:55.138Z,14.70
2017-10-02T03:43:25.960Z,14.80
2017-10-02T03:45:57.355Z,14.80
2017-10-02T03:48:28.732Z,14.80
2017-10-02T03:50:59.717Z,15.10
2017-10-02T03:53:32.632Z,15.20
2017-10-02T03:56:03.650Z,15.20
2017-10-02T03:58:34.724Z,15.50
2017-10-02T04:01:05.595Z,15.40
2017-10-02T04:03:36.911Z,15.10
2017-10-02T04:06:08.109Z,15.00
2017-10-02T04:08:40.154Z,15.00
2017-10-02T04:11:11.349Z,14.90
2017-10-02T04:13:42.561Z,15.00
2017-10-02T04:16:13.727Z,14.90
2017-10-02T04:18:44.993Z,15.00
2017-10-02T04:21:16.100Z,15.00
2017-10-02T04:23:48.203Z,15.10
2017-10-02T04:26:19.280Z,15.00
2017-10-02T04:28:51.064Z,15.10
2017-10-02T04:31:22.439Z,15.10
2017-10-02T04:33:53.406Z,15.20
2017-10-02T04:36:24.426Z,15.20
2017-10-02T04:38:55.225Z,15.20
2017-10-02T04:41:25.690Z,15.20
2017-10-02T04:43:56.837Z,15.20
2017-10-02T04:46:27.823Z,15.20
2017-10-02T04:48:59.713Z,15.30
2017-10-02T04:51:30.829Z,15.30
2017-10-02T04:54:01.809Z,15.30
2017-10-02T04:56:32.841Z,15.30
2017-10-02T04:59:04.393Z,15.30
2017-10-02T05:01:35.279Z,15.40
2017-10-02T05:04:06.171Z,15.40
2017-10-02T05:06:37.028Z,15.40
2017-10-02T05:09:07.642Z,15.40
2017-10-02T05:11:38.818Z,15.40
2017-10-02T05:14:11.042Z,15.40
2017-10-02T05:16:42.108Z,15.40
2017-10-02T05:19:13.496Z,15.40
2017-10-02T05:21:45.702Z,15.40
2017-10-02T05:24:16.752Z,15.40
2017-10-02T05:26:47.554Z,15.40
2017-10-02T05:31:57.326Z,15.50
2017-10-02T05:34:29.250Z,15.40
2017-10-02T05:37:01.057Z,15.50
2017-10-02T05:39:32.359Z,15.50
2017-10-02T05:42:03.366Z,15.50
2017-10-02T05:44:34.788Z,15.50
2017-10-02T05:47:06.150Z,15.60
2017-10-02T05:49:37.218Z,15.60
2017-10-02T05:52:09.028Z,15.60
2017-10-02T05:54:41.115Z,15.70
2017-10-02T05:57:11.857Z,15.70
2017-10-02T05:59:43.222Z,15.70
2017-10-02T06:02:13.890Z,15.70
2017-10-02T06:04:45.940Z,15.80
2017-10-02T06:07:17.191Z,15.80
2017-10-02T06:09:49.210Z,15.90
2017-10-02T06:12:20.919Z,15.90
2017-10-02T06:14:52.932Z,15.90
2017-10-02T06:17:26.509Z,15.90
2017-10-02T06:19:57.947Z,15.90
2017-10-02T06:22:28.555Z,16.00
2017-10-02T06:24:59.627Z,16.00
2017-10-02T06:27:30.630Z,16.10
2017-10-02T06:30:02.285Z,16.10
2017-10-02T06:32:33.493Z,16.10
2017-10-02T06:35:04.333Z,16.10
2017-10-02T06:37:35.533Z,16.10
2017-10-02T06:40:06.829Z,16.10
2017-10-02T06:42:38.694Z,16.20
2017-10-02T06:45:09.327Z,16.20
2017-10-02T06:47:40.322Z,16.20
2017-10-02T06:50:11.676Z,16.20
2017-10-02T06:52:43.194Z,16.20
2017-10-02T06:55:14.879Z,16.30
2017-10-02T06:57:46.659Z,16.30
2017-10-02T07:00:18.578Z,16.30
2017-10-02T07:02:50.343Z,16.30
2017-10-02T07:05:22.596Z,16.30
2017-10-02T07:07:53.417Z,16.30
2017-10-02T07:10:25.140Z,16.30
2017-10-02T07:12:56.765Z,16.30
2017-10-02T07:15:28.291Z,16.40
2017-10-02T07:18:00.314Z,16.40
2017-10-02T07:20:31.324Z,16.40
2017-10-02T07:23:03.061Z,16.40
2017-10-02T07:25:34.524Z,16.40
2017-10-02T07:28:06.726Z,16.40
2017-10-02T07:30:38.115Z,16.40
2017-10-02T07:33:09.458Z,16.40
2017-10-02T07:35:40.808Z,16.30
2017-10-02T07:38:12.419Z,16.30
2017-10-02T07:40:44.069Z,16.20
2017-10-02T07:43:15.416Z,16.10
2017-10-02T07:45:47.536Z,16.00
2017-10-02T07:48:18.929Z,16.00
2017-10-02T07:50:51.130Z,15.90
2017-10-02T07:53:22.279Z,15.90
2017-10-02T07:55:53.815Z,15.80
2017-10-02T07:58:25.572Z,15.80
2017-10-02T08:00:56.937Z,15.80
2017-10-02T08:03:28.807Z,15.80
2017-10-02T08:06:00.054Z,15.90
2017-10-02T08:08:31.497Z,15.90
2017-10-02T08:11:03.714Z,15.90
2017-10-02T08:13:35.954Z,15.90
2017-10-02T08:16:07.351Z,15.90
2017-10-02T08:18:39.208Z,16.00
2017-10-02T08:21:11.508Z,16.00
2017-10-02T08:23:42.998Z,16.00
2017-10-02T08:26:14.161Z,16.00
2017-10-02T08:28:45.321Z,16.00
2017-10-02T08:31:16.524Z,16.00
2017-10-02T08:33:48.021Z,16.10
2017-10-02T08:36:19.021Z,16.10
2017-10-02T08:38:50.385Z,16.10
2017-10-02T08:41:21.977Z,16.10
2017-10-02T08:43:53.778Z,16.20
2017-10-02T08:46:26.788Z,16.20
2017-10-02T08:48:58.242Z,16.10
2017-10-02T08:51:29.091Z,16.20
2017-10-02T08:54:00.321Z,16.10
2017-10-02T08:56:31.181Z,16.10
2017-10-02T08:59:02.947Z,16.20
2017-10-02T09:01:35.728Z,16.30
2017-10-02T09:04:06.851Z,16.30
2017-10-02T09:06:38.311Z,16.30
2017-10-02T09:09:08.934Z,16.30
2017-10-02T09:11:40.201Z,16.30
2017-10-02T09:14:12.127Z,16.40
2017-10-02T09:16:43.854Z,16.30
2017-10-02T09:19:15.480Z,16.40
2017-10-02T09:21:46.891Z,16.50
2017-10-02T09:24:18.321Z,16.50
2017-10-02T09:26:49.761Z,16.60
2017-10-02T09:29:20.596Z,16.60
2017-10-02T09:31:53.552Z,16.70
2017-10-02T09:34:24.320Z,16.70
2017-10-02T09:36:55.263Z,16.80
2017-10-02T09:39:26.478Z,16.80
2017-10-02T09:41:58.437Z,16.90
2017-10-02T09:44:30.179Z,17.20
2017-10-02T09:47:01.433Z,17.60
2017-10-02T09:49:33.532Z,18.00
2017-10-02T09:52:05.959Z,18.00
2017-10-02T09:54:37.458Z,18.00
2017-10-02T09:57:09.029Z,18.00
2017-10-02T09:59:39.754Z,18.00
2017-10-02T10:02:11.194Z,17.90
2017-10-02T10:04:43.261Z,18.10
2017-10-02T10:07:14.880Z,18.00
2017-10-02T10:09:46.906Z,18.10
2017-10-02T10:12:18.334Z,18.10
2017-10-02T10:14:49.814Z,18.20
2017-10-02T10:17:21.413Z,18.20
2017-10-02T10:19:54.310Z,18.30
2017-10-02T10:22:26.074Z,18.30
2017-10-02T10:24:58.170Z,18.50
2017-10-02T10:27:30.498Z,18.40
2017-10-02T10:30:02.542Z,18.50
2017-10-02T10:32:34.452Z,18.60
2017-10-02T10:35:05.832Z,18.60
2017-10-02T10:37:37.408Z,18.50
2017-10-02T10:40:10.248Z,18.60
2017-10-02T10:42:41.445Z,18.70
2017-10-02T10:45:12.820Z,18.80
2017-10-02T10:47:44.072Z,18.90
2017-10-02T10:50:15.516Z,19.00
2017-10-02T10:52:47.323Z,19.10
2017-10-02T10:55:18.489Z,19.00
2017-10-02T10:57:50.245Z,19.00
2017-10-02T11:00:21.436Z,19.00
2017-10-02T11:02:52.339Z,18.80
2017-10-02T11:05:24.634Z,19.40
2017-10-02T11:07:55.565Z,19.40
2017-10-02T11:10:27.112Z,19.90
2017-10-02T11:12:58.916Z,20.30
2017-10-02T11:15:29.861Z,20.50
2017-10-02T11:18:01.367Z,20.80
2017-10-02T11:20:33.274Z,21.50
2017-10-02T11:23:04.369Z,21.50
2017-10-02T11:25:36.830Z,20.70
2017-10-02T11:28:08.763Z,20.40
2017-10-02T11:30:39.930Z,20.40
2017-10-02T11:33:11.854Z,20.10
2017-10-02T11:35:42.778Z,20.10
2017-10-02T11:38:14.207Z,20.50
2017-10-02T11:40:45.309Z,20.90
2017-10-02T11:43:16.996Z,20.00
2017-10-02T11:45:48.131Z,20.00
2017-10-02T11:48:19.390Z,19.90
2017-10-02T11:50:51.475Z,20.40
2017-10-02T11:53:22.550Z,20.40
2017-10-02T11:55:53.768Z,20.30
2017-10-02T11:58:25.316Z,20.00
2017-10-02T12:00:57.281Z,20.20
2017-10-02T12:03:29.598Z,20.20
2017-10-02T12:06:01.179Z,20.30
2017-10-02T12:08:32.832Z,20.50
2017-10-02T12:11:05.199Z,20.90
2017-10-02T12:13:36.583Z,21.70
2017-10-02T12:16:08.144Z,21.80
2017-10-02T12:18:39.828Z,21.90
2017-10-02T12:21:11.427Z,22.10
2017-10-02T12:23:42.697Z,21.90
2017-10-02T12:26:14.770Z,20.60
2017-10-02T12:28:45.885Z,20.50
2017-10-02T12:31:17.677Z,20.30
2017-10-02T12:33:49.485Z,20.10
2017-10-02T12:36:20.934Z,20.20
2017-10-02T12:38:53.206Z,20.40
2017-10-02T12:41:24.096Z,20.40
2017-10-02T12:43:56.565Z,19.80
2017-10-02T12:46:28.010Z,19.80
2017-10-02T12:48:59.578Z,20.20
2017-10-02T12:51:30.176Z,20.80
2017-10-02T12:54:01.779Z,21.40
2017-10-02T12:56:33.145Z,21.50
2017-10-02T12:59:04.532Z,21.70
2017-10-02T13:01:35.620Z,22.00
2017-10-02T13:04:06.852Z,21.70
2017-10-02T13:06:37.501Z,21.40
2017-10-02T13:09:09.924Z,20.90
2017-10-02T13:11:40.638Z,20.80
2017-10-02T13:14:12.075Z,21.20
2017-10-02T13:16:43.577Z,21.50
2017-10-02T13:19:15.196Z,22.00
2017-10-02T13:21:46.682Z,22.10
2017-10-02T13:24:17.512Z,21.80
2017-10-02T13:26:48.922Z,21.80
2017-10-02T13:29:20.052Z,21.40
2017-10-02T13:31:52.197Z,21.10
2017-10-02T13:34:23.186Z,20.80
2017-10-02T13:36:53.972Z,21.10
2017-10-02T13:39:26.272Z,21.00
2017-10-02T13:41:57.851Z,20.90
2017-10-02T13:44:29.661Z,21.00
2017-10-02T13:47:03.675Z,21.00
2017-10-02T13:49:34.868Z,20.90
2017-10-02T13:52:05.526Z,20.60
2017-10-02T13:54:36.783Z,20.70
2017-10-02T13:57:07.782Z,20.90
2017-10-02T13:59:38.887Z,21.20
2017-10-02T14:02:10.750Z,22.60
2017-10-02T14:04:42.099Z,22.60
2017-10-02T14:07:13.719Z,23.00
2017-10-02T14:09:45.748Z,23.00
2017-10-02T14:12:18.507Z,22.50
2017-10-02T14:14:49.558Z,22.50
2017-10-02T14:17:20.314Z,22.00
2017-10-02T14:19:51.256Z,21.90
2017-10-02T14:22:22.359Z,22.10
2017-10-02T14:24:53.889Z,22.30
2017-10-02T14:27:25.850Z,22.20
2017-10-02T14:29:57.386Z,22.10
2017-10-02T14:32:28.510Z,21.90
2017-10-02T14:35:00.005Z,22.10
2017-10-02T14:37:31.473Z,22.20
2017-10-02T14:40:02.896Z,22.30
2017-10-02T14:42:33.844Z,21.90
2017-10-02T14:45:05.844Z,21.80
2017-10-02T14:47:38.104Z,21.90
2017-10-02T14:50:09.120Z,21.40
2017-10-02T14:52:40.170Z,20.80
2017-10-02T14:55:11.961Z,20.60
2017-10-02T14:57:42.992Z,20.50
2017-10-02T15:00:14.745Z,20.50
2017-10-02T15:02:46.582Z,20.50
2017-10-02T15:05:18.400Z,20.10
2017-10-02T15:07:49.529Z,20.10
2017-10-02T15:10:21.251Z,19.80
2017-10-02T15:12:52.680Z,19.70
2017-10-02T15:15:24.313Z,19.60
2017-10-02T15:17:55.941Z,19.60
2017-10-02T15:20:27.111Z,19.60
2017-10-02T15:22:58.387Z,19.60
2017-10-02T15:25:30.200Z,19.60
2017-10-02T15:28:01.688Z,19.60
2017-10-02T15:30:33.031Z,19.60
2017-10-02T15:33:05.037Z,19.50
2017-10-02T15:35:36.146Z,19.40
2017-10-02T15:38:07.389Z,19.30
2017-10-02T15:40:39.371Z,19.20
2017-10-02T15:43:11.023Z,19.10
2017-10-02T15:45:42.826Z,19.10
2017-10-02T15:48:14.215Z,19.10
2017-10-02T15:50:45.912Z,19.10
2017-10-02T15:53:16.675Z,19.00
2017-10-02T15:55:49.117Z,19.00
2017-10-02T15:58:20.277Z,19.00
2017-10-02T16:00:51.628Z,19.00
2017-10-02T16:03:22.741Z,19.00
2017-10-02T16:05:54.186Z,18.90
2017-10-02T16:08:25.587Z,18.90
2017-10-02T16:10:56.806Z,18.90
2017-10-02T16:13:28.356Z,18.90
2017-10-02T16:15:59.272Z,18.80
2017-10-02T16:18:30.539Z,18.80
2017-10-02T16:21:01.819Z,18.70
2017-10-02T16:23:34.361Z,18.70
2017-10-02T16:26:05.451Z,18.70
2017-10-02T16:28:37.270Z,18.70
2017-10-02T16:31:09.188Z,18.60
2017-10-02T16:33:41.265Z,18.60
2017-10-02T16:36:12.155Z,18.60
2017-10-02T16:38:42.785Z,18.60
2017-10-02T16:41:13.922Z,18.60
2017-10-02T16:43:45.075Z,18.50
2017-10-02T16:46:16.870Z,18.40
2017-10-02T16:48:47.596Z,18.40
2017-10-02T16:51:19.108Z,18.40
2017-10-02T16:53:49.993Z,18.40
2017-10-02T16:56:21.450Z,18.30
2017-10-02T16:58:52.484Z,18.20
2017-10-02T17:01:25.126Z,18.10
2017-10-02T17:03:56.820Z,18.10
2017-10-02T17:06:28.303Z,18.10
2017-10-02T17:08:59.845Z,18.10
2017-10-02T17:11:31.312Z,18.00
2017-10-02T17:14:02.578Z,18.00
2017-10-02T17:16:33.731Z,17.90
2017-10-02T17:19:05.996Z,17.90
2017-10-02T17:21:37.276Z,17.90
2017-10-02T17:24:08.258Z,17.90
2017-10-02T17:26:38.863Z,17.90
2017-10-02T17:29:10.700Z,17.90
2017-10-02T17:31:42.668Z,17.80
2017-10-02T17:34:14.390Z,17.80
2017-10-02T17:36:45.857Z,17.80
2017-10-02T17:39:17.338Z,17.80
2017-10-02T17:41:48.592Z,17.70
2017-10-02T17:44:20.521Z,17.70
2017-10-02T17:46:51.417Z,17.60
2017-10-02T17:49:22.446Z,17.60
2017-10-02T17:51:53.270Z,17.50
2017-10-02T17:54:23.839Z,17.40
2017-10-02T17:56:54.865Z,17.40
2017-10-02T17:59:25.681Z,17.40
2017-10-02T18:01:56.842Z,17.40
2017-10-02T18:04:28.182Z,17.40
2017-10-02T18:06:59.244Z,17.40
2017-10-02T18:09:29.921Z,17.40
2017-10-02T18:12:00.916Z,17.40
2017-10-02T18:14:31.774Z,17.40
2017-10-02T18:17:02.794Z,17.40
2017-10-02T18:19:33.626Z,17.40
2017-10-02T18:22:05.023Z,17.40
2017-10-02T18:24:35.822Z,17.40
2017-10-02T18:27:06.736Z,17.40
2017-10-02T18:29:37.841Z,17.40
2017-10-02T18:32:09.140Z,17.30
2017-10-02T18:34:40.428Z,17.20
2017-10-02T18:37:11.205Z,17.20
2017-10-02T18:39:42.011Z,17.20
2017-10-02T18:42:12.922Z,17.10
2017-10-02T18:44:44.282Z,17.20
2017-10-02T18:47:15.781Z,17.10
2017-10-02T18:49:46.766Z,17.00
2017-10-02T18:52:17.381Z,17.00
2017-10-02T18:54:48.188Z,17.00
2017-10-02T18:57:19.606Z,17.00
2017-10-02T18:59:51.087Z,16.90
2017-10-02T19:02:22.550Z,16.90
2017-10-02T19:04:53.438Z,16.90
2017-10-02T19:07:24.644Z,16.90
2017-10-02T19:09:56.509Z,16.90
2017-10-02T19:12:28.108Z,16.80
2017-10-02T19:14:58.929Z,16.80
2017-10-02T19:17:30.020Z,16.80
2017-10-02T19:20:01.061Z,16.80
2017-10-02T19:22:31.999Z,16.80
2017-10-02T19:25:03.518Z,16.80
2017-10-02T19:27:34.822Z,16.70
2017-10-02T19:30:06.139Z,16.70
2017-10-02T19:32:37.148Z,16.70
2017-10-02T19:35:08.214Z,16.70
2017-10-02T19:37:40.132Z,16.60
2017-10-02T19:40:12.326Z,16.60
2017-10-02T19:42:44.226Z,16.60
2017-10-02T19:45:15.547Z,16.50
2017-10-02T19:47:47.466Z,16.50
2017-10-02T19:50:18.341Z,16.50
2017-10-02T19:52:49.965Z,16.40
2017-10-02T19:55:22.227Z,16.40
2017-10-02T19:57:54.097Z,16.30
2017-10-02T20:00:25.005Z,16.30
2017-10-02T20:02:56.743Z,16.20
2017-10-02T20:05:27.530Z,16.30
2017-10-02T20:07:58.556Z,16.20
2017-10-02T20:10:29.945Z,16.10
2017-10-02T20:13:01.120Z,16.10
2017-10-02T20:15:32.150Z,16.10
2017-10-02T20:18:02.949Z,16.10
2017-10-02T20:20:33.649Z,16.00
2017-10-02T20:23:04.679Z,16.00
2017-10-02T20:25:35.870Z,16.00
2017-10-02T20:28:07.041Z,16.00
2017-10-02T20:30:38.590Z,15.90
2017-10-02T20:33:09.525Z,15.90
2017-10-02T20:35:41.543Z,15.70
2017-10-02T20:38:12.491Z,15.60
2017-10-02T20:40:43.558Z,15.50
2017-10-02T20:43:14.406Z,15.30
2017-10-02T20:45:45.614Z,15.00
2017-10-02T20:48:16.660Z,14.80
2017-10-02T20:50:47.737Z,14.60
2017-10-02T20:53:18.106Z,14.40
2017-10-02T20:55:49.594Z,14.30
2017-10-02T20:58:20.182Z,14.20
2017-10-02T21:00:51.006Z,14.10
2017-10-02T21:03:21.443Z,14.00
2017-10-02T21:05:52.408Z,13.90
2017-10-02T21:08:22.836Z,13.90
2017-10-02T21:10:53.368Z,13.80
2017-10-02T21:13:23.856Z,13.80
2017-10-02T21:15:54.154Z,13.80
2017-10-02T21:18:24.617Z,13.70
2017-10-02T21:20:55.962Z,13.70
2017-10-02T21:23:27.166Z,13.60
2017-10-02T21:25:58.175Z,13.60
2017-10-02T21:28:28.172Z,13.60
2017-10-02T21:30:59.898Z,13.50
2017-10-02T21:33:31.370Z,13.50
2017-10-02T21:36:01.803Z,13.50
2017-10-02T21:38:33.328Z,13.50
2017-10-02T21:41:03.879Z,13.50
2017-10-02T21:43:34.835Z,13.50
2017-10-02T21:46:05.569Z,13.50
2017-10-02T21:48:36.176Z,13.50
2017-10-02T21:51:06.719Z,13.50
2017-10-02T21:53:38.117Z,13.40
2017-10-02T21:56:09.515Z,13.40
2017-10-02T21:58:40.229Z,13.40
2017-10-02T22:01:11.416Z,13.40
2017-10-02T22:03:42.632Z,13.40
2017-10-02T22:06:14.040Z,13.40
2017-10-02T22:08:44.658Z,13.40
2017-10-02T22:11:15.583Z,13.40
2017-10-02T22:13:46.388Z,13.40
2017-10-02T22:16:17.808Z,13.40
2017-10-02T22:18:50.230Z,13.30
2017-10-02T22:21:20.601Z,13.30
2017-10-02T22:23:50.736Z,13.30
2017-10-02T22:26:21.514Z,13.30
2017-10-02T22:28:53.282Z,13.30
2017-10-02T22:31:23.663Z,13.30
2017-10-02T22:33:54.321Z,13.20
2017-10-02T22:36:24.823Z,13.20
2017-10-02T22:38:55.478Z,13.20
2017-10-02T22:41:26.817Z,13.20
2017-10-02T22:43:58.182Z,13.20
2017-10-02T22:46:28.572Z,13.10
2017-10-02T22:48:59.144Z,13.20
2017-10-02T22:51:30.533Z,13.20
2017-10-02T22:54:01.001Z,13.20
2017-10-02T22:56:32.193Z,13.20
2017-10-02T22:59:03.266Z,13.10
2017-10-02T23:01:34.314Z,13.10
2017-10-02T23:04:05.337Z,13.10
2017-10-02T23:06:36.812Z,13.10
2017-10-02T23:09:07.119Z,13.10
2017-10-02T23:11:37.087Z,13.10
2017-10-02T23:14:08.106Z,13.10
2017-10-02T23:16:39.473Z,13.20
2017-10-02T23:19:10.230Z,13.20
2017-10-02T23:21:40.649Z,13.10
2017-10-02T23:24:10.856Z,13.10
2017-10-02T23:26:41.137Z,13.10
2017-10-02T23:29:12.364Z,13.10
2017-10-02T23:31:42.625Z,13.10
2017-10-02T23:34:12.953Z,13.10
2017-10-02T23:36:44.098Z,13.10
2017-10-02T23:39:14.574Z,13.00
2017-10-02T23:41:44.954Z,13.10
2017-10-02T23:44:15.066Z,13.10
2017-10-02T23:46:45.516Z,13.10
2017-10-02T23:49:16.097Z,13.00
2017-10-02T23:51:47.759Z,13.00
2017-10-02T23:54:18.789Z,13.00
2017-10-02T23:56:49.341Z,13.00
2017-10-02T23:59:20.554Z,13.00
